createdAt,value
2018-02-21T10:05:03.285Z,28.13
2018-02-21T10:07:30.846Z,25.13
2018-02-21T10:09:58.422Z,27.00
2018-02-21T10:12:25.944Z,26.77
2018-02-21T10:14:53.468Z,27.53
2018-02-21T10:17:21.096Z,26.40
2018-02-21T10:19:48.748Z,26.37
2018-02-21T10:22:16.279Z,25.47
2018-02-21T10:24:44.272Z,25.93
2018-02-21T10:27:11.874Z,27.07
2018-02-21T10:29:39.754Z,29.53
2018-02-21T10:32:07.454Z,25.07
2018-02-21T10:34:34.976Z,28.87
2018-02-21T10:37:02.525Z,25.53
2018-02-21T10:39:30.080Z,27.83
2018-02-21T10:41:57.637Z,28.33
2018-02-21T10:44:25.368Z,27.33
2018-02-21T10:46:52.884Z,25.67
2018-02-21T10:49:21.192Z,24.33
2018-02-21T10:51:48.777Z,27.33
2018-02-21T10:54:16.636Z,30.67
2018-02-21T10:56:44.211Z,23.40
2018-02-21T10:59:11.854Z,25.07
2018-02-21T11:01:39.388Z,23.03
2018-02-21T11:04:08.423Z,27.40
2018-02-21T11:06:37.001Z,25.47
2018-02-21T11:09:04.534Z,24.23
2018-02-21T11:11:32.343Z,25.23
2018-02-21T11:13:59.989Z,23.93
2018-02-21T11:16:28.053Z,24.17
2018-02-21T11:18:55.578Z,23.53
2018-02-21T11:21:23.173Z,23.67
2018-02-21T11:23:50.811Z,24.23
2018-02-21T11:26:22.932Z,23.57
2018-02-21T11:28:51.367Z,27.17
2018-02-21T11:31:19.634Z,23.37
2018-02-21T11:33:48.576Z,29.40
2018-02-21T11:36:16.181Z,23.20
2018-02-21T11:38:45.338Z,24.40
2018-02-21T11:41:13.173Z,21.10
2018-02-21T11:43:40.721Z,21.17
2018-02-21T11:46:08.296Z,22.13
2018-02-21T11:48:36.573Z,22.20
2018-02-21T11:51:04.110Z,26.30
2018-02-21T11:53:31.626Z,21.20
2018-02-21T11:55:59.253Z,22.20
2018-02-21T11:58:26.868Z,20.43
2018-02-21T12:00:54.485Z,23.63
2018-02-21T12:03:22.134Z,21.97
2018-02-21T12:05:49.700Z,20.47
2018-02-21T12:08:18.184Z,20.60
2018-02-21T12:10:45.737Z,21.77
2018-02-21T12:13:13.313Z,21.83
2018-02-21T12:15:40.836Z,21.33
2018-02-21T12:18:09.124Z,19.47
2018-02-21T12:20:37.474Z,18.53
2018-02-21T12:23:05.766Z,19.83
2018-02-21T12:25:34.086Z,17.33
2018-02-21T12:28:01.734Z,18.17
2018-02-21T12:30:29.252Z,18.63
2018-02-21T12:33:07.170Z,20.20
2018-02-21T12:35:34.711Z,23.50
2018-02-21T12:38:03.028Z,16.63
2018-02-21T12:40:36.277Z,17.23
2018-02-21T12:43:03.803Z,17.50
2018-02-21T12:45:31.320Z,16.67
2018-02-21T12:47:59.605Z,22.17
2018-02-21T12:50:27.210Z,17.63
2018-02-21T12:52:54.729Z,18.70
2018-02-21T12:55:22.606Z,17.67
2018-02-21T12:57:50.133Z,22.10
2018-02-21T13:00:22.391Z,18.10
2018-02-21T13:02:49.913Z,18.37
2018-02-21T13:05:17.865Z,17.77
2018-02-21T13:07:45.392Z,20.03
2018-02-21T13:10:13.681Z,19.03
2018-02-21T13:12:41.249Z,16.30
2018-02-21T13:15:08.771Z,17.67
2018-02-21T13:17:36.300Z,19.27
2018-02-21T13:20:03.828Z,19.50
2018-02-21T13:22:31.736Z,20.17
2018-02-21T13:24:59.257Z,18.97
2018-02-21T13:27:27.048Z,18.00
2018-02-21T13:29:54.593Z,20.47
2018-02-21T13:32:22.126Z,17.73
2018-02-21T13:34:51.393Z,18.50
2018-02-21T13:37:19.957Z,18.27
2018-02-21T13:39:47.955Z,18.43
2018-02-21T13:42:15.502Z,16.77
2018-02-21T13:44:43.080Z,20.67
2018-02-21T13:47:10.772Z,18.97
2018-02-21T13:49:38.291Z,18.67
2018-02-21T13:52:05.916Z,19.40
2018-02-21T13:54:34.090Z,19.63
2018-02-21T13:57:01.650Z,20.67
2018-02-21T13:59:33.121Z,16.97
2018-02-21T14:02:00.673Z,17.73
2018-02-21T14:04:28.641Z,17.40
2018-02-21T14:06:56.155Z,18.77
2018-02-21T14:09:24.493Z,21.20
2018-02-21T14:11:52.431Z,20.13
2018-02-21T14:14:20.015Z,20.00
2018-02-21T14:16:47.922Z,18.67
2018-02-21T14:19:16.852Z,18.50
2018-02-21T14:21:44.385Z,20.00
2018-02-21T14:24:12.692Z,19.87
2018-02-21T14:26:40.260Z,17.60
2018-02-21T14:29:08.466Z,19.20
2018-02-21T14:31:40.027Z,18.73
2018-02-21T14:34:08.337Z,20.30
2018-02-21T14:36:35.863Z,16.57
2018-02-21T14:39:04.974Z,18.97
2018-02-21T14:41:33.276Z,16.23
2018-02-21T14:44:00.804Z,18.37
2018-02-21T14:46:29.378Z,18.07
2018-02-21T14:48:58.398Z,19.70
2018-02-21T14:51:26.695Z,16.67
2018-02-21T14:54:17.911Z,19.97
2018-02-21T14:56:47.129Z,17.73
2018-02-21T14:59:14.660Z,22.07
2018-02-21T15:01:43.018Z,17.37
2018-02-21T15:04:11.486Z,19.40
2018-02-21T15:06:39.067Z,18.40
2018-02-21T15:09:12.029Z,18.33
2018-02-21T15:11:39.571Z,19.40
2018-02-21T15:14:07.125Z,19.60
2018-02-21T15:16:34.659Z,17.10
2018-02-21T15:19:02.190Z,19.40
2018-02-21T15:21:30.505Z,18.33
2018-02-21T15:23:58.762Z,17.13
2018-02-21T15:26:26.316Z,20.33
2018-02-21T15:28:54.698Z,17.00
2018-02-21T15:31:23.099Z,18.30
2018-02-21T15:33:50.611Z,19.53
2018-02-21T15:36:18.124Z,21.47
2018-02-21T15:38:45.713Z,26.90
2018-02-21T15:41:13.234Z,22.70
2018-02-21T15:43:41.000Z,18.33
2018-02-21T15:46:08.540Z,19.07
2018-02-21T15:48:36.069Z,19.00
2018-02-21T15:51:03.593Z,18.50
2018-02-21T15:53:31.179Z,19.67
2018-02-21T15:55:58.772Z,18.93
2018-02-21T15:58:27.073Z,18.07
2018-02-21T16:00:54.637Z,17.37
2018-02-21T16:03:22.643Z,17.57
2018-02-21T16:05:50.176Z,18.37
2018-02-21T16:08:17.833Z,18.17
2018-02-21T16:10:45.382Z,16.87
2018-02-21T16:13:12.897Z,19.43
2018-02-21T16:15:40.448Z,15.90
2018-02-21T16:18:09.412Z,17.53
2018-02-21T16:20:36.949Z,17.93
2018-02-21T16:23:04.515Z,17.30
2018-02-21T16:25:32.059Z,17.10
2018-02-21T16:28:00.495Z,17.87
2018-02-21T16:30:28.892Z,19.00
2018-02-21T16:32:56.531Z,17.20
2018-02-21T16:35:24.166Z,20.00
2018-02-21T16:37:51.706Z,18.23
2018-02-21T16:40:19.234Z,19.00
2018-02-21T16:42:46.774Z,17.27
2018-02-21T16:45:14.283Z,15.63
2018-02-21T16:47:42.649Z,20.20
2018-02-21T16:50:10.988Z,21.10
2018-02-21T16:52:39.568Z,19.33
2018-02-21T16:55:07.106Z,17.37
2018-02-21T16:57:34.687Z,15.17
2018-02-21T17:00:02.209Z,15.57
2018-02-21T17:02:30.470Z,19.60
2018-02-21T17:04:59.526Z,16.33
2018-02-21T17:07:27.064Z,15.03
2018-02-21T17:09:54.639Z,17.40
2018-02-21T17:12:22.170Z,17.00
2018-02-21T17:14:49.705Z,20.90
2018-02-21T17:17:18.764Z,15.57
2018-02-21T17:19:46.319Z,19.47
2018-02-21T17:22:13.857Z,17.37
